Time;durP1;ratioP1;P1;durP2;ratioP2;P2;SDS_P1;SDS_P2;PMS_P1;PMS_P2;Temp;Humidity;BMP_temperature;BMP_pressure;BME280_temperature;BME280_humidity;BME280_pressure;Samples;Min_cycle;Max_cycle;Signal;HPM_P1;HPM_P2
2024/04/13 00:01:25;;;;;;;46.00;28.45;;;;;;;;;;5432136;26;19990;-45
2024/04/13 00:03:51;;;;;;;37.15;26.95;;;;;;;;;;5432554;26;20047;-41
2024/04/13 00:06:18;;;;;;;36.65;27.75;;;;;;;;;;5432456;26;19984;-38
2024/04/13 00:08:45;;;;;;;34.70;27.58;;;;;;;;;;5432794;26;19992;-39
2024/04/13 00:11:11;;;;;;;39.95;29.13;;;;;;;;;;5432277;26;19988;-39
2024/04/13 00:13:38;;;;;;;38.50;29.40;;;;;;;;;;5432419;26;20041;-44
2024/04/13 00:16:05;;;;;;;36.85;29.58;;;;;;;;;;5432922;26;19987;-40
2024/04/13 00:18:34;;;;;;;43.50;29.63;;;;;;;;;;5431879;26;19995;-42
2024/04/13 00:21:02;;;;;;;44.90;28.92;;;;;;;;;;5432189;26;19996;-41
2024/04/13 00:23:31;;;;;;;44.30;30.25;;;;;;;;;;5432617;26;19987;-41
2024/04/13 00:25:58;;;;;;;41.97;29.67;;;;;;;;;;5431796;26;19994;-40
2024/04/13 00:28:24;;;;;;;35.10;28.80;;;;;;;;;;5432107;26;20011;-41
2024/04/13 00:30:51;;;;;;;38.05;30.73;;;;;;;;;;5432134;26;19983;-41
2024/04/13 00:33:18;;;;;;;36.10;30.23;;;;;;;;;;5432037;26;19988;-44
2024/04/13 00:35:45;;;;;;;38.83;30.23;;;;;;;;;;5432048;26;19995;-38
2024/04/13 00:38:12;;;;;;;86.50;34.50;;;;;;;;;;5429538;26;19996;-39
2024/04/13 00:40:39;;;;;;;48.28;31.67;;;;;;;;;;5434389;26;19991;-43
2024/04/13 00:43:08;;;;;;;45.90;31.42;;;;;;;;;;5431758;26;20188;-44
2024/04/13 00:45:42;;;;;;;40.72;30.83;;;;;;;;;;5431475;26;19988;-44
2024/04/13 00:48:24;;;;;;;35.67;30.15;;;;;;;;;;5431202;26;20004;-41
2024/04/13 00:50:59;;;;;;;34.08;30.00;;;;;;;;;;5431426;26;19995;-39
2024/04/13 00:53:26;;;;;;;36.03;30.20;;;;;;;;;;5431277;26;20013;-39
2024/04/13 00:55:53;;;;;;;35.45;30.70;;;;;;;;;;5431114;26;19999;-39
2024/04/13 00:58:26;;;;;;;37.10;29.85;;;;;;;;;;5431052;26;20041;-41
2024/04/13 01:00:56;;;;;;;41.75;30.42;;;;;;;;;;5430863;26;19999;-43
2024/04/13 01:03:26;;;;;;;35.50;30.98;;;;;;;;;;5441200;26;19998;-43
2024/04/13 01:05:53;;;;;;;39.17;31.50;;;;;;;;;;5456851;26;20023;-43
2024/04/13 01:08:20;;;;;;;37.75;30.85;;;;;;;;;;5467546;26;19991;-50
2024/04/13 01:10:50;;;;;;;34.05;29.67;;;;;;;;;;5449244;26;19987;-42
2024/04/13 01:13:17;;;;;;;36.40;31.42;;;;;;;;;;5431157;26;20020;-44
2024/04/13 01:15:44;;;;;;;39.05;30.98;;;;;;;;;;5427744;26;19987;-37
2024/04/13 01:18:10;;;;;;;41.80;32.38;;;;;;;;;;5427865;26;19995;-45
2024/04/13 01:20:40;;;;;;;42.90;31.23;;;;;;;;;;5429034;26;19987;-40
2024/04/13 01:23:11;;;;;;;33.45;28.88;;;;;;;;;;5428640;26;19994;-40
2024/04/13 01:25:41;;;;;;;36.17;30.70;;;;;;;;;;5427039;26;19994;-41
2024/04/13 01:28:08;;;;;;;34.47;29.88;;;;;;;;;;5426425;26;20459;-42
2024/04/13 01:30:35;;;;;;;34.97;30.52;;;;;;;;;;5427719;26;19995;-45
2024/04/13 01:33:02;;;;;;;33.58;29.92;;;;;;;;;;5427873;26;19995;-42
2024/04/13 01:35:30;;;;;;;36.15;30.13;;;;;;;;;;5428019;26;19987;-44
2024/04/13 01:37:57;;;;;;;33.47;29.90;;;;;;;;;;5427981;26;19999;-41
2024/04/13 01:40:24;;;;;;;33.70;30.23;;;;;;;;;;5429298;26;19987;-41
2024/04/13 01:42:51;;;;;;;32.17;28.75;;;;;;;;;;5431572;26;19988;-40
2024/04/13 01:45:17;;;;;;;33.50;30.30;;;;;;;;;;5431176;26;19987;-41
2024/04/13 01:47:44;;;;;;;36.35;29.67;;;;;;;;;;5431277;26;20204;-43
2024/04/13 01:50:12;;;;;;;34.05;30.50;;;;;;;;;;5431176;26;20197;-38
2024/04/13 01:52:39;;;;;;;32.83;29.30;;;;;;;;;;5431722;26;20164;-40
2024/04/13 01:55:06;;;;;;;33.30;29.55;;;;;;;;;;5430742;26;19997;-40
2024/04/13 01:57:32;;;;;;;41.50;30.05;;;;;;;;;;5430344;26;19992;-45
2024/04/13 01:59:59;;;;;;;42.92;30.35;;;;;;;;;;5431077;26;19995;-43
2024/04/13 02:02:26;;;;;;;34.33;29.23;;;;;;;;;;5431161;26;19992;-42
2024/04/13 02:04:52;;;;;;;34.33;28.98;;;;;;;;;;5430959;26;19979;-39
2024/04/13 02:07:19;;;;;;;35.47;29.85;;;;;;;;;;5431174;26;19988;-44
2024/04/13 02:09:46;;;;;;;33.00;29.52;;;;;;;;;;5431099;26;20010;-46
2024/04/13 02:12:14;;;;;;;32.92;29.40;;;;;;;;;;5431016;26;19994;-44
2024/04/13 02:14:40;;;;;;;34.00;30.30;;;;;;;;;;5430708;26;20109;-45
2024/04/13 02:17:07;;;;;;;39.33;30.88;;;;;;;;;;5430707;26;20119;-45
2024/04/13 02:19:33;;;;;;;34.40;30.73;;;;;;;;;;5430320;26;19998;-47
2024/04/13 02:22:00;;;;;;;33.70;30.13;;;;;;;;;;5429050;26;20031;-41
2024/04/13 02:24:27;;;;;;;36.00;30.33;;;;;;;;;;5430337;26;20212;-41
2024/04/13 02:26:53;;;;;;;33.67;30.17;;;;;;;;;;5430081;26;20193;-43
2024/04/13 02:29:20;;;;;;;36.28;29.17;;;;;;;;;;5430307;26;19998;-37
2024/04/13 02:31:46;;;;;;;36.03;29.90;;;;;;;;;;5430452;26;19983;-36
2024/04/13 02:34:13;;;;;;;33.60;28.60;;;;;;;;;;5430421;26;20242;-42
2024/04/13 02:36:39;;;;;;;33.05;28.05;;;;;;;;;;5430163;26;19992;-45
2024/04/13 02:39:08;;;;;;;32.78;29.27;;;;;;;;;;5430222;26;19991;-45
2024/04/13 02:41:35;;;;;;;34.53;29.23;;;;;;;;;;5430357;26;20019;-39
2024/04/13 02:44:01;;;;;;;36.63;29.73;;;;;;;;;;5430915;26;19984;-42
2024/04/13 02:46:28;;;;;;;32.63;28.80;;;;;;;;;;5430509;26;19988;-52
2024/04/13 02:48:54;;;;;;;31.70;28.30;;;;;;;;;;5430453;26;20048;-44
2024/04/13 02:51:21;;;;;;;39.55;29.48;;;;;;;;;;5430432;26;20033;-42
2024/04/13 02:53:48;;;;;;;33.45;28.40;;;;;;;;;;5430273;26;19991;-41
2024/04/13 02:56:14;;;;;;;32.90;29.55;;;;;;;;;;5429534;26;19991;-50
2024/04/13 02:58:41;;;;;;;31.33;28.13;;;;;;;;;;5429985;26;19991;-40
2024/04/13 03:01:07;;;;;;;31.23;28.00;;;;;;;;;;5429845;26;20015;-38
2024/04/13 03:03:34;;;;;;;35.03;28.70;;;;;;;;;;5430153;26;19990;-43
2024/04/13 03:06:05;;;;;;;30.70;27.63;;;;;;;;;;5430398;26;19998;-41
2024/04/13 03:08:32;;;;;;;31.65;28.40;;;;;;;;;;5429794;26;20188;-41
2024/04/13 03:11:01;;;;;;;30.88;27.77;;;;;;;;;;5429579;26;20016;-42
2024/04/13 03:13:27;;;;;;;32.10;28.00;;;;;;;;;;5429859;26;20196;-39
2024/04/13 03:16:12;;;;;;;32.35;28.75;;;;;;;;;;5429443;26;19983;-47
2024/04/13 03:18:40;;;;;;;30.95;27.70;;;;;;;;;;5429302;26;20143;-40
2024/04/13 03:21:07;;;;;;;30.95;27.88;;;;;;;;;;5429434;26;20003;-38
2024/04/13 03:23:34;;;;;;;31.05;27.98;;;;;;;;;;5430216;26;19984;-46
2024/04/13 03:26:02;;;;;;;31.55;28.23;;;;;;;;;;5429799;26;20012;-41
2024/04/13 03:28:36;;;;;;;31.50;28.08;;;;;;;;;;5429782;26;20196;-40
2024/04/13 03:31:03;;;;;;;31.67;28.27;;;;;;;;;;5429171;26;19995;-44
2024/04/13 03:33:29;;;;;;;30.73;27.63;;;;;;;;;;5431381;26;19999;-39
2024/04/13 03:36:05;;;;;;;30.60;27.77;;;;;;;;;;5433224;26;19984;-40
2024/04/13 03:38:32;;;;;;;28.90;26.13;;;;;;;;;;5433325;26;20045;-38
2024/04/13 03:41:02;;;;;;;31.75;28.50;;;;;;;;;;5433340;26;20041;-42
2024/04/13 03:43:29;;;;;;;32.58;29.17;;;;;;;;;;5433417;26;19984;-44
2024/04/13 03:45:57;;;;;;;32.28;28.70;;;;;;;;;;5433136;26;20185;-40
2024/04/13 03:48:23;;;;;;;31.23;27.85;;;;;;;;;;5433591;26;19984;-41
2024/04/13 03:50:50;;;;;;;33.25;29.00;;;;;;;;;;5432839;26;19987;-44
2024/04/13 03:53:17;;;;;;;33.38;29.85;;;;;;;;;;5432824;26;20003;-45
2024/04/13 03:55:44;;;;;;;32.42;29.17;;;;;;;;;;5432726;26;19992;-42
2024/04/13 03:58:10;;;;;;;45.40;29.17;;;;;;;;;;5432876;26;20208;-40
2024/04/13 04:00:37;;;;;;;36.75;28.80;;;;;;;;;;5432876;26;20014;-40
2024/04/13 04:03:03;;;;;;;31.55;27.90;;;;;;;;;;5432972;26;19996;-38
2024/04/13 04:05:30;;;;;;;31.67;27.98;;;;;;;;;;5433270;26;19998;-50
2024/04/13 04:07:57;;;;;;;29.95;26.98;;;;;;;;;;5432585;26;19987;-38
2024/04/13 04:10:23;;;;;;;30.20;27.25;;;;;;;;;;5433224;26;19995;-43
2024/04/13 04:12:50;;;;;;;30.83;27.33;;;;;;;;;;5432615;26;19991;-50
2024/04/13 04:15:16;;;;;;;29.02;25.92;;;;;;;;;;5432480;26;19993;-39
2024/04/13 04:17:43;;;;;;;29.42;26.35;;;;;;;;;;5432736;26;20077;-39
2024/04/13 04:20:10;;;;;;;29.33;26.52;;;;;;;;;;5432735;26;19988;-39
2024/04/13 04:22:36;;;;;;;29.50;26.55;;;;;;;;;;5433111;26;20048;-50
2024/04/13 04:25:06;;;;;;;29.15;26.33;;;;;;;;;;5433034;26;19987;-42
2024/04/13 04:27:32;;;;;;;28.05;25.20;;;;;;;;;;5433095;26;19988;-45
2024/04/13 04:29:59;;;;;;;29.63;26.50;;;;;;;;;;5432300;26;20007;-46
2024/04/13 04:32:25;;;;;;;30.23;27.35;;;;;;;;;;5432750;26;19995;-42
2024/04/13 04:34:52;;;;;;;28.42;25.42;;;;;;;;;;5432741;26;19998;-39
2024/04/13 04:37:19;;;;;;;28.92;26.05;;;;;;;;;;5431723;26;20100;-41
2024/04/13 04:39:46;;;;;;;28.58;25.55;;;;;;;;;;5432207;26;19987;-41
2024/04/13 04:42:13;;;;;;;28.50;25.92;;;;;;;;;;5432817;26;20067;-41
2024/04/13 04:44:39;;;;;;;28.30;25.38;;;;;;;;;;5432344;26;20082;-40
2024/04/13 04:47:06;;;;;;;29.50;26.58;;;;;;;;;;5432131;26;19983;-45
2024/04/13 04:49:35;;;;;;;27.80;25.10;;;;;;;;;;5432738;26;19987;-42
2024/04/13 04:52:02;;;;;;;29.92;26.83;;;;;;;;;;5432090;26;19995;-43
2024/04/13 04:54:28;;;;;;;27.65;25.05;;;;;;;;;;5432764;26;19991;-38
2024/04/13 04:56:55;;;;;;;27.95;25.25;;;;;;;;;;5431688;26;19987;-47
2024/04/13 04:59:21;;;;;;;28.40;25.50;;;;;;;;;;5431915;26;19991;-45
2024/04/13 05:01:48;;;;;;;28.35;25.63;;;;;;;;;;5432079;26;19999;-43
2024/04/13 05:04:14;;;;;;;27.13;24.58;;;;;;;;;;5432238;26;20017;-43
2024/04/13 05:06:41;;;;;;;26.83;24.27;;;;;;;;;;5432122;26;20189;-38
2024/04/13 05:09:09;;;;;;;27.55;24.90;;;;;;;;;;5432335;26;19991;-40
2024/04/13 05:11:36;;;;;;;27.60;24.75;;;;;;;;;;5432300;26;19983;-38
2024/04/13 05:14:03;;;;;;;27.38;24.48;;;;;;;;;;5432050;26;19988;-39
2024/04/13 05:16:29;;;;;;;28.33;25.52;;;;;;;;;;5431948;26;19979;-39
2024/04/13 05:18:56;;;;;;;27.25;24.60;;;;;;;;;;5432526;26;20042;-44
2024/04/13 05:21:23;;;;;;;29.17;26.38;;;;;;;;;;5432229;26;20051;-42
2024/04/13 05:23:49;;;;;;;27.85;25.15;;;;;;;;;;5431850;26;19991;-41
2024/04/13 05:26:16;;;;;;;31.33;25.95;;;;;;;;;;5432070;26;19999;-49
2024/04/13 05:28:42;;;;;;;27.45;24.52;;;;;;;;;;5432398;26;19991;-42
2024/04/13 05:31:09;;;;;;;28.42;25.65;;;;;;;;;;5431607;26;20011;-43
2024/04/13 05:33:36;;;;;;;28.23;25.20;;;;;;;;;;5432291;26;19991;-43
2024/04/13 05:36:03;;;;;;;28.15;25.38;;;;;;;;;;5432294;26;20032;-38
2024/04/13 05:38:33;;;;;;;29.17;26.02;;;;;;;;;;5431154;26;20017;-38
2024/04/13 05:40:59;;;;;;;27.52;24.73;;;;;;;;;;5432094;26;20020;-42
2024/04/13 05:43:27;;;;;;;27.27;24.65;;;;;;;;;;5431710;26;19993;-39
2024/04/13 05:45:53;;;;;;;28.23;25.48;;;;;;;;;;5432054;26;20044;-44
2024/04/13 05:48:20;;;;;;;29.08;26.17;;;;;;;;;;5432141;26;19998;-44
2024/04/13 05:50:54;;;;;;;28.45;25.85;;;;;;;;;;5431531;26;20204;-40
2024/04/13 05:53:20;;;;;;;27.27;24.60;;;;;;;;;;5431605;26;19987;-39
2024/04/13 05:55:47;;;;;;;28.05;25.17;;;;;;;;;;5430737;26;19988;-44
2024/04/13 05:58:14;;;;;;;28.55;25.58;;;;;;;;;;5429619;26;19995;-47
2024/04/13 06:00:42;;;;;;;28.35;25.35;;;;;;;;;;5431430;26;19999;-39
2024/04/13 06:03:08;;;;;;;27.65;24.58;;;;;;;;;;5430906;26;19999;-44
2024/04/13 06:05:35;;;;;;;27.30;24.67;;;;;;;;;;5430715;26;19991;-44
2024/04/13 06:08:02;;;;;;;27.48;24.60;;;;;;;;;;5430529;26;19987;-39
2024/04/13 06:10:29;;;;;;;27.90;25.05;;;;;;;;;;5430728;26;20049;-43
2024/04/13 06:12:55;;;;;;;27.65;25.05;;;;;;;;;;5430577;26;19987;-36
2024/04/13 06:15:22;;;;;;;28.08;25.17;;;;;;;;;;5430545;26;20027;-41
2024/04/13 06:17:49;;;;;;;28.15;25.15;;;;;;;;;;5430869;26;19994;-38
2024/04/13 06:20:15;;;;;;;28.80;25.77;;;;;;;;;;5431079;26;19998;-40
2024/04/13 06:22:42;;;;;;;28.48;25.38;;;;;;;;;;5430737;26;19988;-44
2024/04/13 06:25:11;;;;;;;26.98;24.35;;;;;;;;;;5430736;26;20003;-39
2024/04/13 06:27:39;;;;;;;27.65;24.95;;;;;;;;;;5430536;26;19987;-39
2024/04/13 06:30:06;;;;;;;27.65;24.95;;;;;;;;;;5430552;26;19995;-39
2024/04/13 06:32:33;;;;;;;28.38;25.75;;;;;;;;;;5430678;26;19995;-38
2024/04/13 06:34:59;;;;;;;26.98;24.38;;;;;;;;;;5430456;26;19992;-41
2024/04/13 06:37:26;;;;;;;26.38;23.88;;;;;;;;;;5429926;26;20007;-41
2024/04/13 06:39:53;;;;;;;28.67;25.08;;;;;;;;;;5430643;26;20002;-38
2024/04/13 06:42:19;;;;;;;26.55;23.90;;;;;;;;;;5430410;26;19988;-43
2024/04/13 06:44:46;;;;;;;26.52;24.02;;;;;;;;;;5430286;26;19999;-41
2024/04/13 06:47:13;;;;;;;26.88;23.95;;;;;;;;;;5430755;26;19994;-43
2024/04/13 06:49:39;;;;;;;25.65;23.13;;;;;;;;;;5430619;26;19998;-40
2024/04/13 06:52:06;;;;;;;27.85;24.85;;;;;;;;;;5430308;26;20036;-41
2024/04/13 06:54:32;;;;;;;28.63;25.83;;;;;;;;;;5430248;26;19998;-45
2024/04/13 06:56:59;;;;;;;27.17;24.58;;;;;;;;;;5430011;26;19988;-44
2024/04/13 06:59:26;;;;;;;28.83;25.92;;;;;;;;;;5429879;26;19992;-39
2024/04/13 07:01:53;;;;;;;27.90;24.90;;;;;;;;;;5430137;26;20007;-45
2024/04/13 07:04:19;;;;;;;27.90;25.23;;;;;;;;;;5430478;26;19991;-47
2024/04/13 07:06:46;;;;;;;27.95;25.27;;;;;;;;;;5430612;26;19980;-43
2024/04/13 07:09:12;;;;;;;28.10;25.30;;;;;;;;;;5433115;26;20002;-46
2024/04/13 07:11:39;;;;;;;28.40;25.63;;;;;;;;;;5434219;26;20164;-39
2024/04/13 07:14:06;;;;;;;29.20;26.23;;;;;;;;;;5434196;26;20006;-44
2024/04/13 07:16:32;;;;;;;27.98;25.17;;;;;;;;;;5433534;26;19984;-47
2024/04/13 07:18:59;;;;;;;27.13;24.48;;;;;;;;;;5433962;26;20000;-40
2024/04/13 07:21:26;;;;;;;28.75;25.95;;;;;;;;;;5433519;26;19984;-44
2024/04/13 07:23:52;;;;;;;27.90;24.73;;;;;;;;;;5433992;26;20061;-40
2024/04/13 07:26:19;;;;;;;29.15;24.45;;;;;;;;;;5434036;26;19983;-40
2024/04/13 07:28:45;;;;;;;28.17;25.40;;;;;;;;;;5434185;26;19988;-46
2024/04/13 07:31:12;;;;;;;28.40;25.50;;;;;;;;;;5433914;26;20041;-42
2024/04/13 07:33:39;;;;;;;28.38;25.38;;;;;;;;;;5433814;26;19994;-40
2024/04/13 07:36:05;;;;;;;25.88;23.27;;;;;;;;;;5433660;26;20076;-36
2024/04/13 07:38:33;;;;;;;26.67;24.08;;;;;;;;;;5433441;26;20021;-38
2024/04/13 07:40:59;;;;;;;27.00;24.50;;;;;;;;;;5433646;26;19999;-41
2024/04/13 07:43:26;;;;;;;26.75;24.15;;;;;;;;;;5433793;26;20003;-39
2024/04/13 07:45:53;;;;;;;25.85;23.27;;;;;;;;;;5433659;26;19988;-43
2024/04/13 07:48:19;;;;;;;25.75;23.35;;;;;;;;;;5433956;26;19999;-39
2024/04/13 07:50:46;;;;;;;26.58;24.08;;;;;;;;;;5433403;26;19988;-41
2024/04/13 07:53:12;;;;;;;26.95;24.27;;;;;;;;;;5432910;26;19991;-44
2024/04/13 07:55:39;;;;;;;25.92;23.58;;;;;;;;;;5433743;26;19988;-39
2024/04/13 07:58:05;;;;;;;27.02;24.30;;;;;;;;;;5433232;26;20007;-37
2024/04/13 08:00:32;;;;;;;26.90;24.25;;;;;;;;;;5433114;26;19988;-42
2024/04/13 08:02:59;;;;;;;26.27;23.88;;;;;;;;;;5433418;26;20003;-42
2024/04/13 08:05:26;;;;;;;26.88;24.27;;;;;;;;;;5433711;26;19995;-43
2024/04/13 08:07:52;;;;;;;27.48;24.63;;;;;;;;;;5433384;26;20053;-44
2024/04/13 08:10:19;;;;;;;26.80;24.13;;;;;;;;;;5433495;26;19988;-44
2024/04/13 08:12:46;;;;;;;28.63;25.63;;;;;;;;;;5433285;26;19994;-45
2024/04/13 08:15:13;;;;;;;27.95;24.90;;;;;;;;;;5433230;26;20062;-42
2024/04/13 08:17:39;;;;;;;28.35;25.35;;;;;;;;;;5433458;26;19988;-41
2024/04/13 08:20:09;;;;;;;28.20;25.40;;;;;;;;;;5432244;26;20040;-38
2024/04/13 08:22:36;;;;;;;27.98;25.05;;;;;;;;;;5433134;26;20015;-40
2024/04/13 08:25:03;;;;;;;27.23;24.73;;;;;;;;;;5433197;26;19987;-40
2024/04/13 08:27:31;;;;;;;27.17;24.48;;;;;;;;;;5433249;26;19991;-38
2024/04/13 08:29:58;;;;;;;27.35;24.65;;;;;;;;;;5433203;26;20045;-38
2024/04/13 08:32:24;;;;;;;27.13;24.02;;;;;;;;;;5432853;26;19983;-37
2024/04/13 08:34:54;;;;;;;26.38;23.85;;;;;;;;;;5432952;26;20090;-43
2024/04/13 08:37:21;;;;;;;27.67;25.02;;;;;;;;;;5432673;26;19998;-38
2024/04/13 08:39:47;;;;;;;27.55;24.70;;;;;;;;;;5433244;26;19987;-39
2024/04/13 08:42:15;;;;;;;27.10;24.63;;;;;;;;;;5432424;26;20142;-37
2024/04/13 08:44:42;;;;;;;26.83;24.27;;;;;;;;;;5432605;26;19988;-41
2024/04/13 08:47:10;;;;;;;27.38;24.58;;;;;;;;;;5432421;26;20103;-43
2024/04/13 08:49:42;;;;;;;26.60;23.92;;;;;;;;;;5433053;26;20000;-49
2024/04/13 08:52:09;;;;;;;26.33;23.73;;;;;;;;;;5432449;26;19983;-47
2024/04/13 08:54:36;;;;;;;27.20;24.48;;;;;;;;;;5432344;26;20008;-35
2024/04/13 08:57:05;;;;;;;30.17;23.00;;;;;;;;;;5431929;26;19995;-45
2024/04/13 08:59:33;;;;;;;26.98;24.15;;;;;;;;;;5446330;26;19995;-37
2024/04/13 09:02:04;;;;;;;26.02;23.38;;;;;;;;;;5467755;26;20191;-44
2024/04/13 09:04:32;;;;;;;27.05;24.13;;;;;;;;;;5453514;26;19994;-42
2024/04/13 09:07:00;;;;;;;26.58;23.95;;;;;;;;;;5396057;26;19980;-39
2024/04/13 09:09:27;;;;;;;25.52;22.90;;;;;;;;;;5395950;26;20189;-45
2024/04/13 09:11:55;;;;;;;25.65;22.95;;;;;;;;;;5400869;26;20032;-40
2024/04/13 09:14:22;;;;;;;26.55;23.25;;;;;;;;;;5446874;26;20015;-43
2024/04/13 09:16:49;;;;;;;26.13;23.38;;;;;;;;;;5431842;26;20225;-43
2024/04/13 09:19:15;;;;;;;27.23;23.85;;;;;;;;;;5431620;26;20049;-41
2024/04/13 09:21:42;;;;;;;25.17;22.58;;;;;;;;;;5431436;26;19991;-43
2024/04/13 09:24:11;;;;;;;25.88;23.27;;;;;;;;;;5430106;26;20003;-45
2024/04/13 09:26:44;;;;;;;24.38;22.17;;;;;;;;;;5424865;26;20119;-37
2024/04/13 09:29:14;;;;;;;29.30;23.67;;;;;;;;;;5457664;26;19995;-55
2024/04/13 09:31:42;;;;;;;25.73;23.05;;;;;;;;;;5432766;26;19991;-52
2024/04/13 09:34:17;;;;;;;26.58;23.38;;;;;;;;;;5410112;26;20216;-54
2024/04/13 09:36:44;;;;;;;26.52;23.75;;;;;;;;;;5423748;26;20015;-53
2024/04/13 09:39:20;;;;;;;25.40;22.92;;;;;;;;;;5431127;26;20053;-51
2024/04/13 09:41:46;;;;;;;24.85;22.55;;;;;;;;;;5431002;26;20007;-57
2024/04/13 09:44:13;;;;;;;25.70;23.15;;;;;;;;;;5431003;26;20091;-53
2024/04/13 09:46:42;;;;;;;25.50;22.73;;;;;;;;;;5431057;26;19999;-54
2024/04/13 09:49:08;;;;;;;25.33;22.75;;;;;;;;;;5431139;26;19983;-57
2024/04/13 09:51:35;;;;;;;26.08;23.40;;;;;;;;;;5430962;26;20052;-53
2024/04/13 09:54:02;;;;;;;26.90;23.13;;;;;;;;;;5430992;26;19993;-58
2024/04/13 09:56:29;;;;;;;25.50;22.83;;;;;;;;;;5430868;26;19992;-55
2024/04/13 09:58:55;;;;;;;24.75;22.15;;;;;;;;;;5431414;26;19995;-53
2024/04/13 10:01:23;;;;;;;26.05;23.35;;;;;;;;;;5430757;26;20208;-55
2024/04/13 10:03:51;;;;;;;26.58;23.65;;;;;;;;;;5430362;26;20024;-53
2024/04/13 10:06:18;;;;;;;26.63;23.92;;;;;;;;;;5430850;26;19998;-56
2024/04/13 10:08:47;;;;;;;27.90;22.85;;;;;;;;;;5430789;26;19999;-53
2024/04/13 10:11:15;;;;;;;25.42;22.70;;;;;;;;;;5430681;26;20003;-54
2024/04/13 10:13:42;;;;;;;25.85;23.23;;;;;;;;;;5430841;26;19988;-54
2024/04/13 10:16:09;;;;;;;25.92;23.42;;;;;;;;;;5430551;26;19988;-54
2024/04/13 10:18:37;;;;;;;25.67;23.17;;;;;;;;;;5430243;26;19991;-59
2024/04/13 10:21:04;;;;;;;26.08;23.50;;;;;;;;;;5400363;26;19998;-56
2024/04/13 10:23:45;;;;;;;24.77;22.23;;;;;;;;;;5430639;26;20106;-59
2024/04/13 10:26:12;;;;;;;24.92;22.55;;;;;;;;;;5430715;26;20091;-54
2024/04/13 10:28:40;;;;;;;25.83;23.15;;;;;;;;;;5430495;26;20048;-56
2024/04/13 10:31:17;;;;;;;25.17;22.48;;;;;;;;;;5430285;26;19983;-56
2024/04/13 10:33:52;;;;;;;25.90;22.77;;;;;;;;;;5430316;26;20011;-53
2024/04/13 10:36:26;;;;;;;25.35;22.52;;;;;;;;;;5429842;26;19983;-54
2024/04/13 10:38:55;;;;;;;26.80;23.92;;;;;;;;;;5430090;26;20003;-53
2024/04/13 10:41:34;;;;;;;28.73;23.73;;;;;;;;;;5429950;26;19988;-53
2024/04/13 10:44:05;;;;;;;25.58;22.75;;;;;;;;;;5432503;26;20045;-57
2024/04/13 10:46:33;;;;;;;24.42;21.77;;;;;;;;;;5433578;26;19990;-54
2024/04/13 10:49:01;;;;;;;25.77;23.10;;;;;;;;;;5433424;26;19987;-53
2024/04/13 10:51:28;;;;;;;26.45;22.50;;;;;;;;;;5433889;26;19991;-54
2024/04/13 10:53:54;;;;;;;26.85;22.42;;;;;;;;;;5433582;26;19994;-51
2024/04/13 10:56:21;;;;;;;25.73;22.95;;;;;;;;;;5433032;26;19987;-54
2024/04/13 10:58:50;;;;;;;25.67;22.95;;;;;;;;;;5433398;26;19992;-54
2024/04/13 11:01:16;;;;;;;25.08;22.48;;;;;;;;;;5433259;26;19984;-55
2024/04/13 11:03:43;;;;;;;26.45;22.98;;;;;;;;;;5433424;26;19987;-53
2024/04/13 11:06:10;;;;;;;26.85;22.67;;;;;;;;;;5433441;26;19983;-56
2024/04/13 11:08:37;;;;;;;26.52;23.83;;;;;;;;;;5433442;26;20045;-55
2024/04/13 11:11:04;;;;;;;30.73;22.95;;;;;;;;;;5433399;26;19984;-51
2024/04/13 11:13:32;;;;;;;32.75;22.65;;;;;;;;;;5433377;26;19994;-51
2024/04/13 11:15:59;;;;;;;28.15;22.65;;;;;;;;;;5433280;26;19995;-53
2024/04/13 11:18:25;;;;;;;26.75;22.95;;;;;;;;;;5433113;26;20015;-54
2024/04/13 11:20:53;;;;;;;27.85;23.90;;;;;;;;;;5433365;26;20005;-54
2024/04/13 11:23:20;;;;;;;37.10;24.70;;;;;;;;;;5433295;26;20016;-53
2024/04/13 11:25:46;;;;;;;40.42;24.48;;;;;;;;;;5432849;26;19983;-56
2024/04/13 11:28:13;;;;;;;38.72;24.55;;;;;;;;;;5433064;26;19984;-56
2024/04/13 11:30:41;;;;;;;43.80;24.58;;;;;;;;;;5432833;26;19987;-54
2024/04/13 11:33:09;;;;;;;34.63;24.10;;;;;;;;;;5432845;26;19998;-54
2024/04/13 11:35:36;;;;;;;31.65;24.27;;;;;;;;;;5432822;26;19994;-58
2024/04/13 11:38:02;;;;;;;30.20;23.73;;;;;;;;;;5432731;26;19996;-50
2024/04/13 11:40:32;;;;;;;26.95;23.45;;;;;;;;;;5432771;26;19991;-52
2024/04/13 11:43:03;;;;;;;39.90;24.55;;;;;;;;;;5432973;26;19983;-53
2024/04/13 11:45:30;;;;;;;36.10;24.80;;;;;;;;;;5432575;26;20062;-54
2024/04/13 11:47:57;;;;;;;28.23;24.55;;;;;;;;;;5432505;26;19991;-55
2024/04/13 11:50:24;;;;;;;32.28;24.60;;;;;;;;;;5422955;26;20108;-59
2024/04/13 11:52:51;;;;;;;30.38;25.23;;;;;;;;;;5412692;26;20041;-50
2024/04/13 11:55:21;;;;;;;36.13;24.88;;;;;;;;;;5461649;26;20001;-55
2024/04/13 11:57:48;;;;;;;31.17;24.50;;;;;;;;;;5468492;26;19987;-55
2024/04/13 12:00:15;;;;;;;32.45;23.92;;;;;;;;;;5452038;26;20253;-55
2024/04/13 12:02:44;;;;;;;31.83;25.85;;;;;;;;;;5468150;26;19995;-52
2024/04/13 12:05:10;;;;;;;37.88;24.20;;;;;;;;;;5468483;26;19990;-59
2024/04/13 12:07:37;;;;;;;28.40;24.23;;;;;;;;;;5445155;26;19998;-59
2024/04/13 12:10:03;;;;;;;30.98;25.42;;;;;;;;;;5439444;26;19990;-57
2024/04/13 12:12:30;;;;;;;32.05;24.00;;;;;;;;;;5414726;26;19992;-53
2024/04/13 12:14:57;;;;;;;25.60;22.90;;;;;;;;;;5412535;26;20023;-54
2024/04/13 12:17:23;;;;;;;27.38;23.67;;;;;;;;;;5432007;26;19984;-52
2024/04/13 12:19:50;;;;;;;24.70;22.42;;;;;;;;;;5432533;26;19996;-52
2024/04/13 12:22:17;;;;;;;28.63;24.05;;;;;;;;;;5432096;26;20107;-51
2024/04/13 12:24:43;;;;;;;28.20;23.95;;;;;;;;;;5432070;26;19991;-55
2024/04/13 12:27:10;;;;;;;26.35;23.85;;;;;;;;;;5428924;26;20098;-52
2024/04/13 12:29:37;;;;;;;26.67;23.48;;;;;;;;;;5446974;26;20085;-59
2024/04/13 12:32:03;;;;;;;28.05;23.42;;;;;;;;;;5467670;26;20031;-59
2024/04/13 12:34:30;;;;;;;28.23;24.48;;;;;;;;;;5468275;26;19995;-55
2024/04/13 12:36:56;;;;;;;28.38;24.10;;;;;;;;;;5429198;26;20002;-56
2024/04/13 12:39:23;;;;;;;30.45;25.20;;;;;;;;;;5455743;26;20048;-56
2024/04/13 12:41:50;;;;;;;29.17;25.95;;;;;;;;;;5443031;26;19987;-58
2024/04/13 12:44:16;;;;;;;27.45;24.55;;;;;;;;;;5468056;26;19990;-53
2024/04/13 12:46:43;;;;;;;30.77;26.02;;;;;;;;;;5442283;26;20008;-56
2024/04/13 12:49:10;;;;;;;30.23;25.25;;;;;;;;;;5431887;26;20200;-54
2024/04/13 12:51:36;;;;;;;31.17;25.80;;;;;;;;;;5431515;26;19999;-56
2024/04/13 12:54:03;;;;;;;35.22;26.25;;;;;;;;;;5427966;26;19992;-53
2024/04/13 12:56:29;;;;;;;27.23;24.60;;;;;;;;;;5428743;26;19998;-54
2024/04/13 12:58:56;;;;;;;31.50;26.00;;;;;;;;;;5428672;26;19991;-56
2024/04/13 13:01:24;;;;;;;34.78;26.10;;;;;;;;;;5428625;26;20002;-56
2024/04/13 13:03:51;;;;;;;29.63;25.60;;;;;;;;;;5428915;26;19992;-52
2024/04/13 13:06:18;;;;;;;27.90;24.77;;;;;;;;;;5428250;26;19998;-55
2024/04/13 13:08:44;;;;;;;32.47;26.13;;;;;;;;;;5429509;26;19988;-56
2024/04/13 13:11:11;;;;;;;29.35;26.23;;;;;;;;;;5431499;26;20088;-59
2024/04/13 13:13:38;;;;;;;28.55;25.73;;;;;;;;;;5431420;26;20138;-57
2024/04/13 13:16:06;;;;;;;29.42;25.48;;;;;;;;;;5431306;26;20044;-59
2024/04/13 13:18:32;;;;;;;29.15;25.42;;;;;;;;;;5431228;26;20007;-58
2024/04/13 13:20:59;;;;;;;31.27;27.90;;;;;;;;;;5431374;26;19999;-55
2024/04/13 13:23:25;;;;;;;28.58;25.52;;;;;;;;;;5431319;26;19991;-55
2024/04/13 13:25:52;;;;;;;30.65;27.08;;;;;;;;;;5431235;26;19994;-56
2024/04/13 13:28:20;;;;;;;33.17;28.98;;;;;;;;;;5431270;26;20002;-56
2024/04/13 13:30:46;;;;;;;34.55;29.67;;;;;;;;;;5430893;26;20203;-56
2024/04/13 13:33:13;;;;;;;34.88;31.17;;;;;;;;;;5431329;26;20091;-55
2024/04/13 13:35:40;;;;;;;39.92;31.23;;;;;;;;;;5431335;26;20138;-55
2024/04/13 13:38:07;;;;;;;37.78;31.52;;;;;;;;;;5431196;26;20100;-55
2024/04/13 13:40:34;;;;;;;35.80;31.90;;;;;;;;;;5431068;26;19999;-55
2024/04/13 13:43:01;;;;;;;37.30;31.95;;;;;;;;;;5431058;26;20002;-56
2024/04/13 13:45:27;;;;;;;45.85;32.00;;;;;;;;;;5431245;26;19984;-57
2024/04/13 13:47:54;;;;;;;36.83;31.00;;;;;;;;;;5430837;26;19998;-59
2024/04/13 13:50:20;;;;;;;38.13;31.25;;;;;;;;;;5431121;26;19995;-57
2024/04/13 13:52:47;;;;;;;37.92;30.50;;;;;;;;;;5430699;26;19991;-57
2024/04/13 13:55:13;;;;;;;37.65;30.70;;;;;;;;;;5430738;26;19984;-54
2024/04/13 13:57:40;;;;;;;35.45;30.10;;;;;;;;;;5430613;26;20200;-57
2024/04/13 14:00:07;;;;;;;37.97;30.70;;;;;;;;;;5430740;26;20085;-52
2024/04/13 14:02:33;;;;;;;34.20;30.35;;;;;;;;;;5430555;26;20200;-55
2024/04/13 14:05:00;;;;;;;35.75;28.50;;;;;;;;;;5430792;26;19987;-57
2024/04/13 14:07:27;;;;;;;36.88;29.27;;;;;;;;;;5430807;26;19992;-55
2024/04/13 14:09:53;;;;;;;35.55;29.02;;;;;;;;;;5430536;26;20048;-50
2024/04/13 14:12:20;;;;;;;41.83;28.75;;;;;;;;;;5430554;26;20020;-51
2024/04/13 14:14:46;;;;;;;37.70;28.60;;;;;;;;;;5429856;26;20045;-50
2024/04/13 14:17:13;;;;;;;36.95;27.25;;;;;;;;;;5429594;26;19992;-55